Athena, Oregon
Current Conditions -  °F | °C
As of 4:53 PM on Tuesday 27 Jan 2015 (Local Time) from KPDT Reporting Station
Clear Clear  
Wind Chill: 41°   Ceiling: Unl
Heat Index: 41°   Visibility: 10mi
Dew Point: 38°   Wind: 3mph
Humidity: 89%   Direction: 140°SE
Pressure: 30.06"   Gusts: NA
Location:  45.81°N, 118.49°W
Report Text: KPDT 280053Z 14003KT 10SM CLR 05/03 A3006 RMK AO2 SLP184 T00500033
Loading
Personal Weather Stations






























Interactive Weather Map New forecast layout! Learn more

10-Day Weather Forecast

Advertisements
Track Severe Weather on mobile